sensor_id;sensor_type;location;lat;lon;timestamp;P1;durP1;ratioP1;P2;durP2;ratioP2
53871;SDS011;39787;53.174;5.798;2023-06-26T00:00:38;9.63;;;7.70;;
53871;SDS011;39787;53.174;5.798;2023-06-26T00:01:38;8.73;;;7.83;;
53871;SDS011;39787;53.174;5.798;2023-06-26T00:02:39;8.80;;;7.90;;
53871;SDS011;39787;53.174;5.798;2023-06-26T00:03:40;12.23;;;8.20;;
53871;SDS011;39787;53.174;5.798;2023-06-26T00:04:41;10.17;;;8.17;;
53871;SDS011;39787;53.174;5.798;2023-06-26T00:05:43;7.85;;;7.05;;
53871;SDS011;39787;53.174;5.798;2023-06-26T00:06:46;9.05;;;7.72;;
53871;SDS011;39787;53.174;5.798;2023-06-26T00:07:47;8.38;;;7.53;;
53871;SDS011;39787;53.174;5.798;2023-06-26T00:08:55;8.40;;;7.50;;
53871;SDS011;39787;53.174;5.798;2023-06-26T00:09:58;9.48;;;7.68;;
53871;SDS011;39787;53.174;5.798;2023-06-26T00:10:59;10.27;;;7.95;;
53871;SDS011;39787;53.174;5.798;2023-06-26T00:12:00;8.57;;;7.57;;
53871;SDS011;39787;53.174;5.798;2023-06-26T00:13:00;12.10;;;7.43;;
53871;SDS011;39787;53.174;5.798;2023-06-26T00:14:01;8.70;;;7.80;;
53871;SDS011;39787;53.174;5.798;2023-06-26T00:15:02;11.95;;;8.02;;
53871;SDS011;39787;53.174;5.798;2023-06-26T00:16:02;9.35;;;7.65;;
53871;SDS011;39787;53.174;5.798;2023-06-26T00:17:03;8.57;;;7.67;;
53871;SDS011;39787;53.174;5.798;2023-06-26T00:18:03;11.63;;;7.65;;
53871;SDS011;39787;53.174;5.798;2023-06-26T00:19:04;8.30;;;7.43;;
53871;SDS011;39787;53.174;5.798;2023-06-26T00:20:04;14.23;;;7.23;;
53871;SDS011;39787;53.174;5.798;2023-06-26T00:21:05;8.93;;;7.22;;
53871;SDS011;39787;53.174;5.798;2023-06-26T00:22:06;11.13;;;8.13;;
53871;SDS011;39787;53.174;5.798;2023-06-26T00:23:06;11.07;;;8.20;;
53871;SDS011;39787;53.174;5.798;2023-06-26T00:24:07;9.60;;;7.70;;
53871;SDS011;39787;53.174;5.798;2023-06-26T00:25:07;11.33;;;8.17;;
53871;SDS011;39787;53.174;5.798;2023-06-26T00:26:08;7.87;;;7.13;;
53871;SDS011;39787;53.174;5.798;2023-06-26T00:27:08;11.97;;;7.50;;
53871;SDS011;39787;53.174;5.798;2023-06-26T00:28:09;10.90;;;8.73;;
53871;SDS011;39787;53.174;5.798;2023-06-26T00:29:10;8.52;;;7.60;;
53871;SDS011;39787;53.174;5.798;2023-06-26T00:30:10;10.07;;;8.53;;
53871;SDS011;39787;53.174;5.798;2023-06-26T00:31:11;8.10;;;7.28;;
53871;SDS011;39787;53.174;5.798;2023-06-26T00:32:11;8.80;;;7.90;;
53871;SDS011;39787;53.174;5.798;2023-06-26T00:33:12;12.97;;;7.73;;
53871;SDS011;39787;53.174;5.798;2023-06-26T00:34:12;8.97;;;7.80;;
53871;SDS011;39787;53.174;5.798;2023-06-26T00:35:13;8.20;;;7.37;;
53871;SDS011;39787;53.174;5.798;2023-06-26T00:36:14;9.77;;;7.85;;
53871;SDS011;39787;53.174;5.798;2023-06-26T00:37:14;8.33;;;7.53;;
53871;SDS011;39787;53.174;5.798;2023-06-26T00:38:15;8.52;;;7.65;;
53871;SDS011;39787;53.174;5.798;2023-06-26T00:39:15;9.07;;;7.70;;
53871;SDS011;39787;53.174;5.798;2023-06-26T00:40:16;10.70;;;7.33;;
53871;SDS011;39787;53.174;5.798;2023-06-26T00:41:16;8.20;;;7.50;;
53871;SDS011;39787;53.174;5.798;2023-06-26T00:42:17;8.83;;;7.93;;
53871;SDS011;39787;53.174;5.798;2023-06-26T00:43:17;7.30;;;6.60;;
53871;SDS011;39787;53.174;5.798;2023-06-26T00:44:18;8.87;;;7.60;;
53871;SDS011;39787;53.174;5.798;2023-06-26T00:45:18;8.93;;;8.03;;
53871;SDS011;39787;53.174;5.798;2023-06-26T00:46:19;8.82;;;7.38;;
53871;SDS011;39787;53.174;5.798;2023-06-26T00:47:19;8.20;;;7.40;;
53871;SDS011;39787;53.174;5.798;2023-06-26T00:48:20;11.23;;;8.03;;
53871;SDS011;39787;53.174;5.798;2023-06-26T00:49:21;8.48;;;7.60;;
53871;SDS011;39787;53.174;5.798;2023-06-26T00:50:21;14.17;;;7.83;;
53871;SDS011;39787;53.174;5.798;2023-06-26T00:51:22;9.23;;;8.10;;
53871;SDS011;39787;53.174;5.798;2023-06-26T00:52:24;7.50;;;6.80;;
53871;SDS011;39787;53.174;5.798;2023-06-26T00:53:24;8.25;;;7.45;;
53871;SDS011;39787;53.174;5.798;2023-06-26T00:54:25;10.07;;;7.87;;
53871;SDS011;39787;53.174;5.798;2023-06-26T00:55:26;9.70;;;7.68;;
53871;SDS011;39787;53.174;5.798;2023-06-26T00:56:27;8.25;;;7.43;;
53871;SDS011;39787;53.174;5.798;2023-06-26T00:57:29;8.50;;;7.15;;
53871;SDS011;39787;53.174;5.798;2023-06-26T00:58:30;8.00;;;7.20;;
53871;SDS011;39787;53.174;5.798;2023-06-26T00:59:30;9.73;;;7.73;;
53871;SDS011;39787;53.174;5.798;2023-06-26T01:00:31;12.20;;;7.60;;
53871;SDS011;39787;53.174;5.798;2023-06-26T01:01:32;10.35;;;7.30;;
53871;SDS011;39787;53.174;5.798;2023-06-26T01:02:32;8.40;;;7.53;;
53871;SDS011;39787;53.174;5.798;2023-06-26T01:03:33;8.97;;;7.40;;
53871;SDS011;39787;53.174;5.798;2023-06-26T01:04:33;9.17;;;7.97;;
53871;SDS011;39787;53.174;5.798;2023-06-26T01:05:34;10.73;;;8.65;;
53871;SDS011;39787;53.174;5.798;2023-06-26T01:06:34;9.23;;;8.37;;
53871;SDS011;39787;53.174;5.798;2023-06-26T01:07:35;8.20;;;7.32;;
53871;SDS011;39787;53.174;5.798;2023-06-26T01:08:37;10.05;;;8.50;;
53871;SDS011;39787;53.174;5.798;2023-06-26T01:09:41;8.70;;;7.80;;
53871;SDS011;39787;53.174;5.798;2023-06-26T01:10:42;8.32;;;7.53;;
53871;SDS011;39787;53.174;5.798;2023-06-26T01:11:43;8.57;;;7.70;;
53871;SDS011;39787;53.174;5.798;2023-06-26T01:12:44;8.60;;;7.90;;
53871;SDS011;39787;53.174;5.798;2023-06-26T01:13:45;8.32;;;7.47;;
53871;SDS011;39787;53.174;5.798;2023-06-26T01:14:46;9.02;;;7.95;;
53871;SDS011;39787;53.174;5.798;2023-06-26T01:15:46;8.50;;;7.33;;
53871;SDS011;39787;53.174;5.798;2023-06-26T01:16:47;8.27;;;7.25;;
53871;SDS011;39787;53.174;5.798;2023-06-26T01:17:50;8.52;;;7.65;;
53871;SDS011;39787;53.174;5.798;2023-06-26T01:18:51;13.32;;;7.53;;
53871;SDS011;39787;53.174;5.798;2023-06-26T01:19:52;13.77;;;7.88;;
53871;SDS011;39787;53.174;5.798;2023-06-26T01:20:53;8.57;;;7.75;;
53871;SDS011;39787;53.174;5.798;2023-06-26T01:22:02;9.63;;;7.47;;
53871;SDS011;39787;53.174;5.798;2023-06-26T01:23:29;9.35;;;8.18;;
53871;SDS011;39787;53.174;5.798;2023-06-26T01:24:36;9.68;;;8.25;;
53871;SDS011;39787;53.174;5.798;2023-06-26T01:25:56;8.93;;;8.13;;
53871;SDS011;39787;53.174;5.798;2023-06-26T01:27:07;8.90;;;8.00;;
53871;SDS011;39787;53.174;5.798;2023-06-26T01:28:08;9.10;;;8.18;;
53871;SDS011;39787;53.174;5.798;2023-06-26T01:29:10;9.10;;;7.78;;
53871;SDS011;39787;53.174;5.798;2023-06-26T01:30:12;9.73;;;8.23;;
53871;SDS011;39787;53.174;5.798;2023-06-26T01:31:13;10.05;;;7.85;;
53871;SDS011;39787;53.174;5.798;2023-06-26T01:33:15;9.55;;;8.13;;
53871;SDS011;39787;53.174;5.798;2023-06-26T01:34:16;9.55;;;8.07;;
53871;SDS011;39787;53.174;5.798;2023-06-26T01:36:18;8.35;;;7.55;;
53871;SDS011;39787;53.174;5.798;2023-06-26T01:37:18;11.60;;;8.38;;
53871;SDS011;39787;53.174;5.798;2023-06-26T01:38:19;10.50;;;8.37;;
53871;SDS011;39787;53.174;5.798;2023-06-26T01:39:20;9.15;;;8.15;;
53871;SDS011;39787;53.174;5.798;2023-06-26T01:40:21;8.97;;;8.07;;
53871;SDS011;39787;53.174;5.798;2023-06-26T01:41:21;10.23;;;8.50;;
53871;SDS011;39787;53.174;5.798;2023-06-26T01:42:22;8.47;;;7.70;;
53871;SDS011;39787;53.174;5.798;2023-06-26T01:44:27;8.70;;;7.78;;
53871;SDS011;39787;53.174;5.798;2023-06-26T01:45:29;12.32;;;8.02;;
53871;SDS011;39787;53.174;5.798;2023-06-26T01:46:36;10.05;;;8.38;;
53871;SDS011;39787;53.174;5.798;2023-06-26T01:47:49;9.50;;;8.50;;
53871;SDS011;39787;53.174;5.798;2023-06-26T01:48:56;8.43;;;7.72;;
53871;SDS011;39787;53.174;5.798;2023-06-26T01:50:05;9.68;;;8.77;;
53871;SDS011;39787;53.174;5.798;2023-06-26T01:51:08;8.40;;;7.70;;
53871;SDS011;39787;53.174;5.798;2023-06-26T01:53:11;8.90;;;8.00;;
53871;SDS011;39787;53.174;5.798;2023-06-26T01:54:19;9.35;;;8.43;;
53871;SDS011;39787;53.174;5.798;2023-06-26T01:55:32;8.55;;;7.72;;
53871;SDS011;39787;53.174;5.798;2023-06-26T01:56:42;8.88;;;7.97;;
53871;SDS011;39787;53.174;5.798;2023-06-26T01:57:45;12.45;;;8.23;;
53871;SDS011;39787;53.174;5.798;2023-06-26T01:58:47;8.77;;;7.97;;
53871;SDS011;39787;53.174;5.798;2023-06-26T01:59:50;8.93;;;8.13;;
53871;SDS011;39787;53.174;5.798;2023-06-26T02:00:51;13.88;;;8.68;;
53871;SDS011;39787;53.174;5.798;2023-06-26T02:02:53;8.68;;;7.88;;
53871;SDS011;39787;53.174;5.798;2023-06-26T02:03:54;10.47;;;8.23;;
53871;SDS011;39787;53.174;5.798;2023-06-26T02:04:54;12.03;;;8.00;;
53871;SDS011;39787;53.174;5.798;2023-06-26T02:05:55;11.60;;;8.73;;
53871;SDS011;39787;53.174;5.798;2023-06-26T02:06:55;8.83;;;8.00;;
53871;SDS011;39787;53.174;5.798;2023-06-26T02:07:56;9.93;;;7.77;;
53871;SDS011;39787;53.174;5.798;2023-06-26T02:08:56;8.57;;;7.78;;
53871;SDS011;39787;53.174;5.798;2023-06-26T02:09:57;9.77;;;8.07;;
53871;SDS011;39787;53.174;5.798;2023-06-26T02:10:57;11.17;;;8.93;;
53871;SDS011;39787;53.174;5.798;2023-06-26T02:11:58;11.17;;;8.50;;
53871;SDS011;39787;53.174;5.798;2023-06-26T02:12:58;9.70;;;8.50;;
53871;SDS011;39787;53.174;5.798;2023-06-26T02:13:59;10.97;;;8.20;;
53871;SDS011;39787;53.174;5.798;2023-06-26T02:14:59;9.07;;;8.20;;
53871;SDS011;39787;53.174;5.798;2023-06-26T02:16:00;10.37;;;8.53;;
53871;SDS011;39787;53.174;5.798;2023-06-26T02:17:00;10.83;;;8.53;;
53871;SDS011;39787;53.174;5.798;2023-06-26T02:18:01;9.10;;;8.10;;
53871;SDS011;39787;53.174;5.798;2023-06-26T02:19:01;9.57;;;8.27;;
53871;SDS011;39787;53.174;5.798;2023-06-26T02:20:02;9.03;;;8.23;;
53871;SDS011;39787;53.174;5.798;2023-06-26T02:21:03;12.57;;;8.38;;
53871;SDS011;39787;53.174;5.798;2023-06-26T02:23:04;10.98;;;7.95;;
53871;SDS011;39787;53.174;5.798;2023-06-26T02:24:05;11.50;;;8.20;;
53871;SDS011;39787;53.174;5.798;2023-06-26T02:25:05;9.77;;;7.85;;
53871;SDS011;39787;53.174;5.798;2023-06-26T02:26:06;10.35;;;8.75;;
53871;SDS011;39787;53.174;5.798;2023-06-26T02:27:07;9.30;;;7.60;;
53871;SDS011;39787;53.174;5.798;2023-06-26T02:28:07;10.83;;;8.47;;
53871;SDS011;39787;53.174;5.798;2023-06-26T02:29:08;9.20;;;8.30;;
53871;SDS011;39787;53.174;5.798;2023-06-26T02:30:08;9.30;;;7.80;;
53871;SDS011;39787;53.174;5.798;2023-06-26T02:31:09;12.35;;;8.13;;
53871;SDS011;39787;53.174;5.798;2023-06-26T02:32:10;10.00;;;7.60;;
53871;SDS011;39787;53.174;5.798;2023-06-26T02:33:10;8.83;;;8.03;;
53871;SDS011;39787;53.174;5.798;2023-06-26T02:34:11;9.93;;;8.40;;
53871;SDS011;39787;53.174;5.798;2023-06-26T02:35:11;10.20;;;8.32;;
53871;SDS011;39787;53.174;5.798;2023-06-26T02:36:12;7.90;;;7.17;;
53871;SDS011;39787;53.174;5.798;2023-06-26T02:37:12;8.20;;;7.40;;
53871;SDS011;39787;53.174;5.798;2023-06-26T02:38:13;9.43;;;7.27;;
53871;SDS011;39787;53.174;5.798;2023-06-26T02:39:13;10.10;;;6.67;;
53871;SDS011;39787;53.174;5.798;2023-06-26T02:40:14;7.53;;;6.83;;
53871;SDS011;39787;53.174;5.798;2023-06-26T02:41:14;9.50;;;6.77;;
53871;SDS011;39787;53.174;5.798;2023-06-26T02:42:15;7.13;;;6.43;;
53871;SDS011;39787;53.174;5.798;2023-06-26T02:43:15;11.10;;;6.80;;
53871;SDS011;39787;53.174;5.798;2023-06-26T02:44:16;11.47;;;7.03;;
53871;SDS011;39787;53.174;5.798;2023-06-26T02:45:16;6.53;;;5.90;;
53871;SDS011;39787;53.174;5.798;2023-06-26T02:46:17;9.87;;;6.50;;
53871;SDS011;39787;53.174;5.798;2023-06-26T02:47:17;9.10;;;6.50;;
53871;SDS011;39787;53.174;5.798;2023-06-26T02:48:17;8.50;;;6.70;;
53871;SDS011;39787;53.174;5.798;2023-06-26T02:49:18;8.20;;;6.37;;
53871;SDS011;39787;53.174;5.798;2023-06-26T02:50:18;12.10;;;7.20;;
53871;SDS011;39787;53.174;5.798;2023-06-26T02:51:19;7.03;;;5.90;;
53871;SDS011;39787;53.174;5.798;2023-06-26T02:52:19;8.57;;;6.93;;
53871;SDS011;39787;53.174;5.798;2023-06-26T02:53:20;11.23;;;7.07;;
53871;SDS011;39787;53.174;5.798;2023-06-26T02:54:20;9.83;;;6.70;;
53871;SDS011;39787;53.174;5.798;2023-06-26T02:55:21;8.67;;;6.40;;
53871;SDS011;39787;53.174;5.798;2023-06-26T02:56:21;12.40;;;6.73;;
53871;SDS011;39787;53.174;5.798;2023-06-26T02:57:22;11.77;;;6.97;;
53871;SDS011;39787;53.174;5.798;2023-06-26T02:58:22;8.90;;;6.67;;
53871;SDS011;39787;53.174;5.798;2023-06-26T02:59:23;12.07;;;7.40;;
53871;SDS011;39787;53.174;5.798;2023-06-26T03:00:23;13.87;;;6.83;;
53871;SDS011;39787;53.174;5.798;2023-06-26T03:01:24;10.47;;;6.77;;
53871;SDS011;39787;53.174;5.798;2023-06-26T03:02:25;11.88;;;6.95;;
53871;SDS011;39787;53.174;5.798;2023-06-26T03:03:25;10.07;;;7.53;;
53871;SDS011;39787;53.174;5.798;2023-06-26T03:04:25;12.40;;;7.53;;
53871;SDS011;39787;53.174;5.798;2023-06-26T03:05:26;13.17;;;7.80;;
53871;SDS011;39787;53.174;5.798;2023-06-26T03:06:27;12.93;;;7.67;;
53871;SDS011;39787;53.174;5.798;2023-06-26T03:07:27;17.67;;;8.82;;
53871;SDS011;39787;53.174;5.798;2023-06-26T03:08:28;14.77;;;7.90;;
53871;SDS011;39787;53.174;5.798;2023-06-26T03:09:28;13.43;;;7.63;;
53871;SDS011;39787;53.174;5.798;2023-06-26T03:10:28;17.20;;;7.80;;
53871;SDS011;39787;53.174;5.798;2023-06-26T03:11:29;12.33;;;7.87;;
53871;SDS011;39787;53.174;5.798;2023-06-26T03:12:29;11.57;;;7.60;;
53871;SDS011;39787;53.174;5.798;2023-06-26T03:13:30;12.83;;;7.43;;
53871;SDS011;39787;53.174;5.798;2023-06-26T03:14:31;14.63;;;7.32;;
53871;SDS011;39787;53.174;5.798;2023-06-26T03:15:32;13.30;;;8.17;;
53871;SDS011;39787;53.174;5.798;2023-06-26T03:16:32;9.87;;;7.63;;
53871;SDS011;39787;53.174;5.798;2023-06-26T03:17:32;12.90;;;7.87;;
53871;SDS011;39787;53.174;5.798;2023-06-26T03:18:33;10.87;;;7.47;;
53871;SDS011;39787;53.174;5.798;2023-06-26T03:19:33;13.70;;;8.33;;
53871;SDS011;39787;53.174;5.798;2023-06-26T03:20:34;14.67;;;8.50;;
53871;SDS011;39787;53.174;5.798;2023-06-26T03:21:34;11.80;;;8.20;;
53871;SDS011;39787;53.174;5.798;2023-06-26T03:22:35;14.97;;;7.97;;
53871;SDS011;39787;53.174;5.798;2023-06-26T03:23:35;14.73;;;8.10;;
53871;SDS011;39787;53.174;5.798;2023-06-26T03:24:36;15.17;;;8.60;;
53871;SDS011;39787;53.174;5.798;2023-06-26T03:25:36;16.03;;;9.30;;
53871;SDS011;39787;53.174;5.798;2023-06-26T03:26:37;11.83;;;7.77;;
53871;SDS011;39787;53.174;5.798;2023-06-26T03:27:37;14.30;;;8.73;;
53871;SDS011;39787;53.174;5.798;2023-06-26T03:28:38;16.93;;;8.63;;
53871;SDS011;39787;53.174;5.798;2023-06-26T03:29:38;15.20;;;9.17;;
53871;SDS011;39787;53.174;5.798;2023-06-26T03:30:39;14.83;;;8.43;;
53871;SDS011;39787;53.174;5.798;2023-06-26T03:31:39;14.07;;;8.18;;
53871;SDS011;39787;53.174;5.798;2023-06-26T03:32:40;11.77;;;8.27;;
53871;SDS011;39787;53.174;5.798;2023-06-26T03:33:40;16.10;;;8.90;;
53871;SDS011;39787;53.174;5.798;2023-06-26T03:34:41;17.60;;;8.97;;
53871;SDS011;39787;53.174;5.798;2023-06-26T03:35:41;14.67;;;8.50;;
53871;SDS011;39787;53.174;5.798;2023-06-26T03:36:42;13.53;;;8.07;;
53871;SDS011;39787;53.174;5.798;2023-06-26T03:37:42;15.53;;;9.20;;
53871;SDS011;39787;53.174;5.798;2023-06-26T03:38:43;17.13;;;9.03;;
53871;SDS011;39787;53.174;5.798;2023-06-26T03:39:43;20.00;;;8.57;;
53871;SDS011;39787;53.174;5.798;2023-06-26T03:40:44;15.73;;;8.73;;
53871;SDS011;39787;53.174;5.798;2023-06-26T03:41:44;16.77;;;10.00;;
53871;SDS011;39787;53.174;5.798;2023-06-26T03:42:45;20.17;;;9.53;;
53871;SDS011;39787;53.174;5.798;2023-06-26T03:43:45;24.23;;;10.83;;
53871;SDS011;39787;53.174;5.798;2023-06-26T03:44:45;25.50;;;11.67;;
53871;SDS011;39787;53.174;5.798;2023-06-26T03:45:46;26.27;;;11.43;;
53871;SDS011;39787;53.174;5.798;2023-06-26T03:46:46;33.90;;;11.23;;
53871;SDS011;39787;53.174;5.798;2023-06-26T03:47:47;19.70;;;10.93;;
53871;SDS011;39787;53.174;5.798;2023-06-26T03:48:47;25.30;;;11.60;;
53871;SDS011;39787;53.174;5.798;2023-06-26T03:49:48;21.38;;;10.63;;
53871;SDS011;39787;53.174;5.798;2023-06-26T03:50:49;22.60;;;11.43;;
53871;SDS011;39787;53.174;5.798;2023-06-26T03:51:50;21.02;;;10.82;;
53871;SDS011;39787;53.174;5.798;2023-06-26T03:52:51;27.23;;;10.90;;
53871;SDS011;39787;53.174;5.798;2023-06-26T03:53:51;21.73;;;10.50;;
53871;SDS011;39787;53.174;5.798;2023-06-26T03:54:52;20.20;;;11.00;;
53871;SDS011;39787;53.174;5.798;2023-06-26T03:55:52;24.90;;;13.40;;
53871;SDS011;39787;53.174;5.798;2023-06-26T03:56:53;23.07;;;10.93;;
53871;SDS011;39787;53.174;5.798;2023-06-26T03:57:53;19.03;;;11.07;;
53871;SDS011;39787;53.174;5.798;2023-06-26T03:58:54;15.90;;;11.17;;
53871;SDS011;39787;53.174;5.798;2023-06-26T03:59:54;20.33;;;11.07;;
53871;SDS011;39787;53.174;5.798;2023-06-26T04:00:54;18.00;;;10.60;;
53871;SDS011;39787;53.174;5.798;2023-06-26T04:01:55;26.20;;;10.63;;
53871;SDS011;39787;53.174;5.798;2023-06-26T04:02:55;21.50;;;9.93;;
53871;SDS011;39787;53.174;5.798;2023-06-26T04:03:56;26.07;;;11.00;;
53871;SDS011;39787;53.174;5.798;2023-06-26T04:04:56;17.70;;;10.43;;
53871;SDS011;39787;53.174;5.798;2023-06-26T04:05:57;22.63;;;10.60;;
53871;SDS011;39787;53.174;5.798;2023-06-26T04:06:57;20.53;;;11.73;;
53871;SDS011;39787;53.174;5.798;2023-06-26T04:07:58;26.70;;;11.30;;
53871;SDS011;39787;53.174;5.798;2023-06-26T04:08:58;21.20;;;11.17;;
53871;SDS011;39787;53.174;5.798;2023-06-26T04:09:59;24.37;;;11.03;;
53871;SDS011;39787;53.174;5.798;2023-06-26T04:10:59;14.57;;;9.95;;
53871;SDS011;39787;53.174;5.798;2023-06-26T04:12:00;25.70;;;10.50;;
53871;SDS011;39787;53.174;5.798;2023-06-26T04:13:01;19.00;;;10.70;;
53871;SDS011;39787;53.174;5.798;2023-06-26T04:14:01;21.13;;;10.40;;
53871;SDS011;39787;53.174;5.798;2023-06-26T04:15:02;21.30;;;10.47;;
53871;SDS011;39787;53.174;5.798;2023-06-26T04:16:02;21.73;;;10.73;;
53871;SDS011;39787;53.174;5.798;2023-06-26T04:17:03;28.75;;;10.88;;
53871;SDS011;39787;53.174;5.798;2023-06-26T04:18:04;29.67;;;10.70;;
53871;SDS011;39787;53.174;5.798;2023-06-26T04:19:04;19.73;;;10.10;;
53871;SDS011;39787;53.174;5.798;2023-06-26T04:20:05;26.20;;;10.03;;
53871;SDS011;39787;53.174;5.798;2023-06-26T04:21:07;20.05;;;10.75;;
53871;SDS011;39787;53.174;5.798;2023-06-26T04:22:11;17.27;;;8.48;;
53871;SDS011;39787;53.174;5.798;2023-06-26T04:23:12;17.40;;;8.73;;
53871;SDS011;39787;53.174;5.798;2023-06-26T04:24:12;17.80;;;8.33;;
53871;SDS011;39787;53.174;5.798;2023-06-26T04:25:13;22.67;;;8.33;;
53871;SDS011;39787;53.174;5.798;2023-06-26T04:26:13;20.30;;;9.03;;
53871;SDS011;39787;53.174;5.798;2023-06-26T04:27:14;17.07;;;8.97;;
53871;SDS011;39787;53.174;5.798;2023-06-26T04:28:14;12.50;;;7.17;;
53871;SDS011;39787;53.174;5.798;2023-06-26T04:29:15;18.50;;;7.67;;
53871;SDS011;39787;53.174;5.798;2023-06-26T04:30:15;18.70;;;7.67;;
53871;SDS011;39787;53.174;5.798;2023-06-26T04:31:16;22.53;;;7.43;;
53871;SDS011;39787;53.174;5.798;2023-06-26T04:32:16;21.23;;;7.07;;
53871;SDS011;39787;53.174;5.798;2023-06-26T04:33:17;18.23;;;7.63;;
53871;SDS011;39787;53.174;5.798;2023-06-26T04:34:17;16.90;;;6.53;;
53871;SDS011;39787;53.174;5.798;2023-06-26T04:35:18;12.03;;;5.67;;
53871;SDS011;39787;53.174;5.798;2023-06-26T04:36:18;13.40;;;5.70;;
53871;SDS011;39787;53.174;5.798;2023-06-26T04:37:19;19.97;;;6.90;;
53871;SDS011;39787;53.174;5.798;2023-06-26T04:38:19;16.27;;;5.88;;
53871;SDS011;39787;53.174;5.798;2023-06-26T04:39:20;12.80;;;5.13;;
53871;SDS011;39787;53.174;5.798;2023-06-26T04:40:21;17.43;;;5.17;;
53871;SDS011;39787;53.174;5.798;2023-06-26T04:41:21;21.07;;;5.00;;
53871;SDS011;39787;53.174;5.798;2023-06-26T04:42:22;10.33;;;4.83;;
53871;SDS011;39787;53.174;5.798;2023-06-26T04:43:22;16.17;;;5.17;;
53871;SDS011;39787;53.174;5.798;2023-06-26T04:44:23;15.93;;;5.67;;
53871;SDS011;39787;53.174;5.798;2023-06-26T04:45:23;19.97;;;5.23;;
53871;SDS011;39787;53.174;5.798;2023-06-26T04:46:23;14.83;;;4.63;;
53871;SDS011;39787;53.174;5.798;2023-06-26T04:47:24;14.60;;;5.10;;
53871;SDS011;39787;53.174;5.798;2023-06-26T04:48:24;19.07;;;5.90;;
53871;SDS011;39787;53.174;5.798;2023-06-26T04:49:25;17.77;;;5.30;;
53871;SDS011;39787;53.174;5.798;2023-06-26T04:50:25;14.27;;;4.97;;
53871;SDS011;39787;53.174;5.798;2023-06-26T04:51:26;21.33;;;4.40;;
53871;SDS011;39787;53.174;5.798;2023-06-26T04:52:26;18.83;;;5.07;;
53871;SDS011;39787;53.174;5.798;2023-06-26T04:53:27;15.27;;;5.57;;
53871;SDS011;39787;53.174;5.798;2023-06-26T04:54:27;15.23;;;4.60;;
53871;SDS011;39787;53.174;5.798;2023-06-26T04:55:28;15.83;;;5.00;;
53871;SDS011;39787;53.174;5.798;2023-06-26T04:56:28;15.83;;;4.53;;
53871;SDS011;39787;53.174;5.798;2023-06-26T04:57:29;24.37;;;6.07;;
53871;SDS011;39787;53.174;5.798;2023-06-26T04:58:29;15.37;;;4.90;;
53871;SDS011;39787;53.174;5.798;2023-06-26T04:59:30;12.40;;;4.47;;
53871;SDS011;39787;53.174;5.798;2023-06-26T05:00:31;21.73;;;4.77;;
53871;SDS011;39787;53.174;5.798;2023-06-26T05:01:31;17.30;;;4.60;;
53871;SDS011;39787;53.174;5.798;2023-06-26T05:02:32;17.50;;;4.67;;
53871;SDS011;39787;53.174;5.798;2023-06-26T05:03:32;21.57;;;5.30;;
53871;SDS011;39787;53.174;5.798;2023-06-26T05:04:33;18.73;;;4.87;;
53871;SDS011;39787;53.174;5.798;2023-06-26T05:05:33;20.97;;;5.33;;
53871;SDS011;39787;53.174;5.798;2023-06-26T05:06:33;16.57;;;4.43;;
53871;SDS011;39787;53.174;5.798;2023-06-26T05:07:34;17.07;;;4.17;;
53871;SDS011;39787;53.174;5.798;2023-06-26T05:08:34;18.77;;;4.37;;
53871;SDS011;39787;53.174;5.798;2023-06-26T05:09:35;20.03;;;5.10;;
53871;SDS011;39787;53.174;5.798;2023-06-26T05:10:35;18.57;;;4.67;;
53871;SDS011;39787;53.174;5.798;2023-06-26T05:11:36;14.73;;;4.30;;
53871;SDS011;39787;53.174;5.798;2023-06-26T05:12:37;10.05;;;3.95;;
53871;SDS011;39787;53.174;5.798;2023-06-26T05:13:37;15.73;;;4.17;;
53871;SDS011;39787;53.174;5.798;2023-06-26T05:14:37;18.73;;;3.70;;
53871;SDS011;39787;53.174;5.798;2023-06-26T05:15:38;18.73;;;4.57;;
53871;SDS011;39787;53.174;5.798;2023-06-26T05:16:38;19.47;;;4.40;;
53871;SDS011;39787;53.174;5.798;2023-06-26T05:17:39;18.23;;;3.93;;
53871;SDS011;39787;53.174;5.798;2023-06-26T05:18:39;16.57;;;4.17;;
53871;SDS011;39787;53.174;5.798;2023-06-26T05:19:40;14.27;;;3.90;;
53871;SDS011;39787;53.174;5.798;2023-06-26T05:20:41;10.97;;;3.67;;
53871;SDS011;39787;53.174;5.798;2023-06-26T05:21:41;15.70;;;5.18;;
53871;SDS011;39787;53.174;5.798;2023-06-26T05:22:42;13.93;;;4.10;;
53871;SDS011;39787;53.174;5.798;2023-06-26T05:23:43;19.88;;;4.75;;
53871;SDS011;39787;53.174;5.798;2023-06-26T05:24:45;19.58;;;4.78;;
53871;SDS011;39787;53.174;5.798;2023-06-26T05:25:46;12.32;;;3.90;;
53871;SDS011;39787;53.174;5.798;2023-06-26T05:26:47;19.83;;;4.93;;
53871;SDS011;39787;53.174;5.798;2023-06-26T05:27:48;16.95;;;4.28;;
53871;SDS011;39787;53.174;5.798;2023-06-26T05:28:49;15.27;;;3.80;;
53871;SDS011;39787;53.174;5.798;2023-06-26T05:29:49;18.30;;;4.32;;
53871;SDS011;39787;53.174;5.798;2023-06-26T05:30:51;13.77;;;4.18;;
53871;SDS011;39787;53.174;5.798;2023-06-26T05:31:51;14.32;;;4.20;;
53871;SDS011;39787;53.174;5.798;2023-06-26T05:32:55;18.33;;;4.25;;
53871;SDS011;39787;53.174;5.798;2023-06-26T05:33:56;14.40;;;3.75;;
53871;SDS011;39787;53.174;5.798;2023-06-26T05:34:59;16.05;;;4.00;;
53871;SDS011;39787;53.174;5.798;2023-06-26T05:36:02;12.23;;;3.25;;
53871;SDS011;39787;53.174;5.798;2023-06-26T05:37:04;14.35;;;3.42;;
53871;SDS011;39787;53.174;5.798;2023-06-26T05:38:05;12.65;;;3.33;;
53871;SDS011;39787;53.174;5.798;2023-06-26T05:39:06;12.27;;;3.67;;
53871;SDS011;39787;53.174;5.798;2023-06-26T05:40:07;13.43;;;3.20;;
53871;SDS011;39787;53.174;5.798;2023-06-26T05:41:08;14.98;;;3.67;;
53871;SDS011;39787;53.174;5.798;2023-06-26T05:42:09;10.20;;;3.00;;
53871;SDS011;39787;53.174;5.798;2023-06-26T05:43:10;13.85;;;3.30;;
53871;SDS011;39787;53.174;5.798;2023-06-26T05:44:11;13.57;;;3.25;;
53871;SDS011;39787;53.174;5.798;2023-06-26T05:45:11;12.23;;;2.80;;
53871;SDS011;39787;53.174;5.798;2023-06-26T05:46:12;12.17;;;3.80;;
53871;SDS011;39787;53.174;5.798;2023-06-26T05:47:12;12.67;;;3.40;;
53871;SDS011;39787;53.174;5.798;2023-06-26T05:48:13;14.10;;;3.03;;
53871;SDS011;39787;53.174;5.798;2023-06-26T05:49:14;12.18;;;3.38;;
53871;SDS011;39787;53.174;5.798;2023-06-26T05:50:14;17.43;;;3.97;;
53871;SDS011;39787;53.174;5.798;2023-06-26T05:51:15;9.50;;;2.83;;
53871;SDS011;39787;53.174;5.798;2023-06-26T05:52:16;10.40;;;2.78;;
53871;SDS011;39787;53.174;5.798;2023-06-26T05:53:16;8.90;;;2.85;;
53871;SDS011;39787;53.174;5.798;2023-06-26T05:54:17;17.42;;;3.75;;
53871;SDS011;39787;53.174;5.798;2023-06-26T05:55:18;8.75;;;3.47;;
53871;SDS011;39787;53.174;5.798;2023-06-26T05:56:19;14.88;;;2.60;;
53871;SDS011;39787;53.174;5.798;2023-06-26T05:57:20;12.63;;;3.50;;
53871;SDS011;39787;53.174;5.798;2023-06-26T05:58:20;12.03;;;3.20;;
53871;SDS011;39787;53.174;5.798;2023-06-26T05:59:23;10.20;;;3.03;;
53871;SDS011;39787;53.174;5.798;2023-06-26T06:00:24;7.63;;;2.60;;
53871;SDS011;39787;53.174;5.798;2023-06-26T06:02:25;11.57;;;2.97;;
53871;SDS011;39787;53.174;5.798;2023-06-26T06:03:26;10.47;;;3.03;;
53871;SDS011;39787;53.174;5.798;2023-06-26T06:04:26;11.50;;;2.73;;
53871;SDS011;39787;53.174;5.798;2023-06-26T06:05:27;12.57;;;2.97;;
53871;SDS011;39787;53.174;5.798;2023-06-26T06:06:27;9.47;;;2.60;;
53871;SDS011;39787;53.174;5.798;2023-06-26T06:07:28;5.43;;;2.30;;
53871;SDS011;39787;53.174;5.798;2023-06-26T06:08:28;16.97;;;3.43;;
53871;SDS011;39787;53.174;5.798;2023-06-26T06:09:29;6.80;;;2.53;;
53871;SDS011;39787;53.174;5.798;2023-06-26T06:10:29;7.23;;;2.50;;
53871;SDS011;39787;53.174;5.798;2023-06-26T06:11:30;10.37;;;2.90;;